createdAt,value
2022-08-04T00:00:12.075Z,1.20
2022-08-04T00:03:09.820Z,1.10
2022-08-04T00:06:01.305Z,1.10
2022-08-04T00:08:37.801Z,0.90
2022-08-04T00:11:07.286Z,1.00
2022-08-04T00:13:57.916Z,1.10
2022-08-04T00:16:34.862Z,1.23
2022-08-04T00:19:23.693Z,1.10
2022-08-04T00:22:04.171Z,1.13
2022-08-04T00:24:31.746Z,1.33
2022-08-04T00:26:58.567Z,1.02
2022-08-04T00:29:27.022Z,1.20
2022-08-04T00:31:57.430Z,1.20
2022-08-04T00:34:29.521Z,1.00
2022-08-04T00:36:57.848Z,1.13
2022-08-04T00:39:25.518Z,1.20
2022-08-04T00:42:01.223Z,1.17
2022-08-04T00:45:11.979Z,1.30
2022-08-04T00:47:53.474Z,1.17
2022-08-04T00:50:35.206Z,1.15
2022-08-04T00:53:14.377Z,1.10
2022-08-04T00:55:47.022Z,1.20
2022-08-04T00:58:46.413Z,1.00
2022-08-04T01:01:34.551Z,1.10
2022-08-04T01:04:23.426Z,1.10
2022-08-04T01:07:14.659Z,1.13
2022-08-04T01:09:54.665Z,1.13
2022-08-04T01:13:03.167Z,1.17
2022-08-04T01:16:05.262Z,1.40
2022-08-04T01:19:00.586Z,1.10
2022-08-04T01:21:30.439Z,1.20
2022-08-04T01:24:17.747Z,1.15
2022-08-04T01:27:09.441Z,1.10
2022-08-04T01:30:05.576Z,1.20
2022-08-04T01:32:53.701Z,1.35
2022-08-04T01:35:55.314Z,1.30
2022-08-04T01:38:33.535Z,1.27
2022-08-04T01:41:07.045Z,1.30
2022-08-04T01:43:40.004Z,1.30
2022-08-04T01:46:07.079Z,1.30
2022-08-04T01:48:37.998Z,1.13
2022-08-04T01:51:08.970Z,1.27
2022-08-04T01:53:38.930Z,1.10
2022-08-04T01:56:07.824Z,1.40
2022-08-04T01:58:36.983Z,1.15
2022-08-04T02:01:09.364Z,1.10
2022-08-04T02:04:21.504Z,1.20
2022-08-04T02:06:28.279Z,1.25
2022-08-04T02:09:03.786Z,1.20
2022-08-04T02:11:31.204Z,1.10
2022-08-04T02:14:39.414Z,1.10
2022-08-04T02:17:34.308Z,1.30
2022-08-04T02:20:23.595Z,1.20
2022-08-04T02:22:59.135Z,1.10
2022-08-04T02:25:29.471Z,1.33
2022-08-04T02:28:01.739Z,1.30
2022-08-04T02:30:40.267Z,1.20
2022-08-04T02:33:09.497Z,1.40
2022-08-04T02:35:39.347Z,1.40
2022-08-04T02:38:39.370Z,1.23
2022-08-04T02:41:08.956Z,1.13
2022-08-04T02:43:50.764Z,1.17
2022-08-04T02:46:20.989Z,1.40
2022-08-04T02:48:50.163Z,1.23
2022-08-04T02:51:21.545Z,1.40
2022-08-04T02:53:52.371Z,1.10
2022-08-04T02:56:20.268Z,1.13
2022-08-04T02:58:51.836Z,1.40
2022-08-04T03:01:18.645Z,1.20
2022-08-04T03:04:09.447Z,1.08
2022-08-04T03:07:02.800Z,1.30
2022-08-04T03:09:50.430Z,1.30
2022-08-04T03:13:01.488Z,1.50
2022-08-04T03:16:12.443Z,1.33
2022-08-04T03:19:00.210Z,1.35
2022-08-04T03:21:42.271Z,1.20
2022-08-04T03:24:16.975Z,1.08
2022-08-04T03:27:32.616Z,1.20
2022-08-04T03:30:04.938Z,1.30
2022-08-04T03:32:37.466Z,1.25
2022-08-04T03:35:42.360Z,1.30
2022-08-04T03:38:43.015Z,1.02
2022-08-04T03:41:51.668Z,1.30
2022-08-04T03:44:26.970Z,1.20
2022-08-04T03:47:05.328Z,1.30
2022-08-04T03:49:42.574Z,1.30
2022-08-04T03:52:55.227Z,1.30
2022-08-04T03:55:24.702Z,1.30
2022-08-04T03:58:33.794Z,1.33
2022-08-04T04:01:10.879Z,1.25
2022-08-04T04:03:41.513Z,1.40
2022-08-04T04:06:53.688Z,1.40
2022-08-04T04:09:56.787Z,1.30
2022-08-04T04:12:37.104Z,1.20
2022-08-04T04:15:18.657Z,1.35
2022-08-04T04:18:15.767Z,1.00
2022-08-04T04:20:51.317Z,1.30
2022-08-04T04:23:50.479Z,1.10
2022-08-04T04:26:29.407Z,1.30
2022-08-04T04:29:37.839Z,1.23
2022-08-04T04:32:16.494Z,1.77
2022-08-04T04:34:50.178Z,1.30
2022-08-04T04:37:49.299Z,1.20
2022-08-04T04:40:33.115Z,1.40
2022-08-04T04:43:16.906Z,1.40
2022-08-04T04:46:16.022Z,1.30
2022-08-04T04:48:54.457Z,1.42
2022-08-04T04:51:31.600Z,1.30
2022-08-04T04:54:16.859Z,1.10
2022-08-04T04:56:53.689Z,1.27
2022-08-04T04:59:24.944Z,1.15
2022-08-04T05:01:51.619Z,1.40
2022-08-04T05:04:48.810Z,1.10
2022-08-04T05:07:53.306Z,1.40
2022-08-04T05:10:39.694Z,1.40
2022-08-04T05:14:36.199Z,1.30
2022-08-04T05:16:34.996Z,1.35
2022-08-04T05:19:26.191Z,1.40
2022-08-04T05:22:04.044Z,1.20
2022-08-04T05:24:37.780Z,1.30
2022-08-04T05:27:12.529Z,1.20
2022-08-04T05:29:51.507Z,1.40
2022-08-04T05:32:24.619Z,1.38
2022-08-04T05:35:07.923Z,1.13
2022-08-04T05:37:38.587Z,1.25
2022-08-04T05:40:08.420Z,1.20
2022-08-04T05:42:40.943Z,1.40
2022-08-04T05:45:10.145Z,1.30
2022-08-04T05:47:37.863Z,1.30
2022-08-04T05:50:06.452Z,1.40
2022-08-04T05:52:36.563Z,1.40
2022-08-04T05:55:04.141Z,1.10
2022-08-04T05:57:31.656Z,1.30
2022-08-04T06:00:07.086Z,1.20
2022-08-04T06:02:51.175Z,1.20
2022-08-04T06:05:19.094Z,1.50
2022-08-04T06:08:11.796Z,1.27
2022-08-04T06:10:38.763Z,1.40
2022-08-04T06:13:46.635Z,1.25
2022-08-04T06:16:01.376Z,1.20
2022-08-04T06:19:56.528Z,1.33
2022-08-04T06:21:20.979Z,1.30
2022-08-04T06:23:57.666Z,1.30
2022-08-04T06:26:32.776Z,1.40
2022-08-04T06:29:01.331Z,1.23
2022-08-04T06:32:28.760Z,1.45
2022-08-04T06:34:34.416Z,1.15
2022-08-04T06:37:01.724Z,1.35
2022-08-04T06:39:30.967Z,1.30
2022-08-04T06:42:20.641Z,1.30
2022-08-04T06:44:49.033Z,1.60
2022-08-04T06:47:19.462Z,1.55
2022-08-04T06:51:30.581Z,1.30
2022-08-04T06:52:36.166Z,1.40
2022-08-04T06:55:04.235Z,1.40
2022-08-04T06:57:31.553Z,1.50
2022-08-04T07:00:05.500Z,1.40
2022-08-04T07:02:40.659Z,1.60
2022-08-04T07:05:08.516Z,1.60
2022-08-04T07:07:56.474Z,1.40
2022-08-04T07:10:24.699Z,1.50
2022-08-04T07:12:52.951Z,1.55
2022-08-04T07:15:21.293Z,1.50
2022-08-04T07:17:49.649Z,1.60
2022-08-04T07:20:34.240Z,1.60
2022-08-04T07:23:04.695Z,1.35
2022-08-04T07:25:59.888Z,1.50
2022-08-04T07:28:21.688Z,1.60
2022-08-04T07:30:49.805Z,1.50
2022-08-04T07:33:18.385Z,1.23
2022-08-04T07:36:04.885Z,1.60
2022-08-04T07:38:37.591Z,1.67
2022-08-04T07:44:01.121Z,1.23
2022-08-04T07:46:27.902Z,1.52
2022-08-04T07:48:59.689Z,1.30
2022-08-04T07:51:27.016Z,1.40
2022-08-04T07:53:56.400Z,1.50
2022-08-04T07:56:24.888Z,1.40
2022-08-04T07:58:51.611Z,1.50
2022-08-04T08:01:20.149Z,1.30
2022-08-04T08:03:50.029Z,1.60
2022-08-04T08:06:33.341Z,1.42
2022-08-04T08:09:13.150Z,1.60
2022-08-04T08:12:36.282Z,1.40
2022-08-04T08:14:30.238Z,1.65
2022-08-04T08:16:58.259Z,1.30
2022-08-04T08:19:24.988Z,1.50
2022-08-04T08:21:59.723Z,1.50
2022-08-04T08:24:31.346Z,1.42
2022-08-04T08:27:00.132Z,1.45
2022-08-04T08:29:29.384Z,1.60
2022-08-04T08:32:01.436Z,1.42
2022-08-04T08:34:33.201Z,1.60
2022-08-04T08:37:14.268Z,1.60
2022-08-04T08:40:07.224Z,1.50
2022-08-04T08:42:45.989Z,1.40
2022-08-04T08:45:41.655Z,1.45
2022-08-04T08:48:39.828Z,1.50
2022-08-04T08:51:22.403Z,1.40
2022-08-04T08:53:55.014Z,1.58
2022-08-04T08:56:55.238Z,1.38
2022-08-04T08:59:50.728Z,1.35
2022-08-04T09:02:34.271Z,1.60
2022-08-04T09:05:21.053Z,1.50
2022-08-04T09:08:18.420Z,1.27
2022-08-04T09:10:54.095Z,1.52
2022-08-04T09:13:27.803Z,1.40
2022-08-04T09:16:10.343Z,1.30
2022-08-04T09:18:52.758Z,1.40
2022-08-04T09:21:56.730Z,1.40
2022-08-04T09:24:36.611Z,1.30
2022-08-04T09:27:12.415Z,1.40
2022-08-04T09:29:47.732Z,1.50
2022-08-04T09:32:37.091Z,1.50
2022-08-04T09:35:24.256Z,1.40
2022-08-04T09:38:18.214Z,1.30
2022-08-04T09:41:46.147Z,1.40
2022-08-04T09:44:50.266Z,1.50
2022-08-04T09:47:24.761Z,1.20
2022-08-04T09:50:29.424Z,1.20
2022-08-04T09:53:36.650Z,1.40
2022-08-04T09:56:29.163Z,1.45
2022-08-04T09:59:18.228Z,1.50
2022-08-04T10:01:46.907Z,1.30
2022-08-04T10:04:29.519Z,1.38
2022-08-04T10:07:24.231Z,1.33
2022-08-04T10:09:57.134Z,1.40
2022-08-04T10:12:54.888Z,1.27
2022-08-04T10:16:05.591Z,1.30
2022-08-04T10:18:47.247Z,1.33
2022-08-04T10:21:32.738Z,1.23
2022-08-04T10:24:29.970Z,1.20
2022-08-04T10:27:23.272Z,1.00
2022-08-04T10:29:50.287Z,1.40
2022-08-04T10:32:42.989Z,1.20
2022-08-04T10:35:13.950Z,1.20
2022-08-04T10:38:09.271Z,1.45
2022-08-04T10:40:56.395Z,1.33
2022-08-04T10:43:39.824Z,1.45
2022-08-04T10:46:29.343Z,1.13
2022-08-04T10:49:11.791Z,1.35
2022-08-04T10:52:15.246Z,1.50
2022-08-04T10:54:51.188Z,1.40
2022-08-04T10:57:29.764Z,1.40
2022-08-04T11:00:06.597Z,1.25
2022-08-04T11:02:48.098Z,1.20
2022-08-04T11:05:29.695Z,1.42
2022-08-04T11:08:01.744Z,1.45
2022-08-04T11:10:33.132Z,1.50
2022-08-04T11:13:04.051Z,1.42
2022-08-04T11:15:39.519Z,1.40
2022-08-04T11:18:16.808Z,1.40
2022-08-04T11:20:52.904Z,1.20
2022-08-04T11:23:30.693Z,1.30
2022-08-04T11:26:24.408Z,1.38
2022-08-04T11:29:12.249Z,1.40
2022-08-04T11:31:51.911Z,1.50
2022-08-04T11:34:24.048Z,1.30
2022-08-04T11:37:14.047Z,1.40
2022-08-04T11:39:50.156Z,1.45
2022-08-04T11:42:26.259Z,1.42
2022-08-04T11:45:04.562Z,1.60
2022-08-04T11:47:48.309Z,1.40
2022-08-04T11:50:26.494Z,1.20
2022-08-04T11:52:56.883Z,1.67
2022-08-04T11:55:27.208Z,1.40
2022-08-04T11:57:57.220Z,1.60
2022-08-04T12:00:28.039Z,1.60
2022-08-04T12:03:24.376Z,1.60
2022-08-04T12:05:56.695Z,1.50
2022-08-04T12:08:33.286Z,1.70
2022-08-04T12:11:18.293Z,1.25
2022-08-04T12:13:56.254Z,1.50
2022-08-04T12:16:31.917Z,1.40
2022-08-04T12:19:09.835Z,1.42
2022-08-04T12:21:53.001Z,1.50
2022-08-04T12:24:27.566Z,1.25
2022-08-04T12:26:59.694Z,1.48
2022-08-04T12:29:28.316Z,1.20
2022-08-04T12:32:06.988Z,1.40
2022-08-04T12:34:51.731Z,1.30
2022-08-04T12:37:32.604Z,1.27
2022-08-04T12:40:22.601Z,1.38
2022-08-04T12:43:11.391Z,1.20
2022-08-04T12:45:48.804Z,1.20
2022-08-04T12:48:21.418Z,1.30
2022-08-04T12:50:53.868Z,1.23
2022-08-04T12:53:32.037Z,1.35
2022-08-04T12:56:01.921Z,1.33
2022-08-04T12:58:43.014Z,1.33
2022-08-04T13:02:07.976Z,1.30
2022-08-04T13:04:34.450Z,1.42
2022-08-04T13:07:15.911Z,1.23
2022-08-04T13:09:43.440Z,1.30
2022-08-04T13:12:26.011Z,1.30
2022-08-04T13:15:17.874Z,1.48
2022-08-04T13:17:49.859Z,1.30
2022-08-04T13:20:24.050Z,1.50
2022-08-04T13:22:50.799Z,1.40
2022-08-04T13:26:42.975Z,1.45
2022-08-04T13:28:13.700Z,1.30
2022-08-04T13:30:41.696Z,1.40
2022-08-04T13:33:08.759Z,1.20
2022-08-04T13:35:55.441Z,1.50
2022-08-04T13:38:24.734Z,1.30
2022-08-04T13:40:52.656Z,1.30
2022-08-04T13:44:15.796Z,1.40
2022-08-04T13:46:28.028Z,1.25
2022-08-04T13:49:26.016Z,1.23
2022-08-04T13:51:57.531Z,1.40
2022-08-04T13:54:47.943Z,1.50
2022-08-04T13:57:30.493Z,1.38
2022-08-04T14:00:09.607Z,1.50
2022-08-04T14:02:49.931Z,1.40
2022-08-04T14:05:28.117Z,1.60
2022-08-04T14:08:18.631Z,1.50
2022-08-04T14:10:54.350Z,1.65
2022-08-04T14:13:40.968Z,1.50
2022-08-04T14:16:17.197Z,1.58
2022-08-04T14:18:44.431Z,1.40
2022-08-04T14:21:16.642Z,1.30
2022-08-04T14:23:50.796Z,1.50
2022-08-04T14:26:31.309Z,1.50
2022-08-04T14:29:28.557Z,1.50
2022-08-04T14:32:06.078Z,1.55
2022-08-04T14:34:44.848Z,1.50
2022-08-04T14:37:18.416Z,1.40
2022-08-04T14:40:18.315Z,1.63
2022-08-04T14:42:54.747Z,1.70
2022-08-04T14:45:36.658Z,1.45
2022-08-04T14:48:08.249Z,1.60
2022-08-04T14:50:44.175Z,1.70
2022-08-04T14:53:17.221Z,1.50
2022-08-04T14:55:47.928Z,1.60
2022-08-04T14:58:35.898Z,1.60
2022-08-04T15:01:09.576Z,1.58
2022-08-04T15:03:49.772Z,1.65
2022-08-04T15:06:25.944Z,1.50
2022-08-04T15:08:54.644Z,1.48
2022-08-04T15:11:24.310Z,1.80
2022-08-04T15:13:55.419Z,1.50
2022-08-04T15:16:24.365Z,1.50
2022-08-04T15:18:54.494Z,1.58
2022-08-04T15:21:22.716Z,1.38
2022-08-04T15:23:50.978Z,1.40
2022-08-04T15:26:51.295Z,1.52
2022-08-04T15:29:29.626Z,1.38
2022-08-04T15:32:17.922Z,1.30
2022-08-04T15:34:49.748Z,1.42
2022-08-04T15:37:25.315Z,1.40
2022-08-04T15:39:59.649Z,1.40
2022-08-04T15:42:40.941Z,1.60
2022-08-04T15:46:41.999Z,1.35
2022-08-04T15:48:12.483Z,1.50
2022-08-04T15:51:01.055Z,1.42
2022-08-04T15:54:01.241Z,1.40
2022-08-04T15:56:24.097Z,1.42
2022-08-04T15:58:55.299Z,1.50
2022-08-04T16:01:23.131Z,1.38
2022-08-04T16:04:00.039Z,1.50
2022-08-04T16:06:28.989Z,1.50
2022-08-04T16:09:04.176Z,1.60
2022-08-04T16:11:34.963Z,1.30
2022-08-04T16:14:01.766Z,1.58
2022-08-04T16:16:41.003Z,1.42
2022-08-04T16:19:13.677Z,1.30
2022-08-04T16:21:48.617Z,1.52
2022-08-04T16:24:18.767Z,1.20
2022-08-04T16:26:56.173Z,1.30
2022-08-04T16:29:23.267Z,1.30
2022-08-04T16:32:05.547Z,1.30
2022-08-04T16:34:45.697Z,1.40
2022-08-04T16:37:18.828Z,1.30
2022-08-04T16:39:50.547Z,1.20
2022-08-04T16:42:37.051Z,1.60
2022-08-04T16:45:06.764Z,1.30
2022-08-04T16:48:04.106Z,1.60
2022-08-04T16:50:33.453Z,1.42
2022-08-04T16:53:00.495Z,1.35
2022-08-04T16:55:28.776Z,1.60
2022-08-04T16:57:58.911Z,1.30
2022-08-04T17:00:34.276Z,1.27
2022-08-04T17:03:09.611Z,1.30
2022-08-04T17:05:39.293Z,1.35
2022-08-04T17:10:55.738Z,1.27
2022-08-04T17:14:04.594Z,1.08
2022-08-04T17:16:18.856Z,1.15
2022-08-04T17:18:49.332Z,1.20
2022-08-04T17:21:20.408Z,1.38
2022-08-04T17:24:14.683Z,1.10
2022-08-04T17:29:42.844Z,0.90
2022-08-04T17:32:21.213Z,1.10
2022-08-04T17:34:50.847Z,1.10
2022-08-04T17:37:41.086Z,1.15
2022-08-04T17:40:22.705Z,1.10
2022-08-04T17:44:04.922Z,1.05
2022-08-04T17:46:15.439Z,1.00
2022-08-04T17:49:16.517Z,0.98
2022-08-04T17:52:04.042Z,1.00
2022-08-04T17:54:37.469Z,1.13
2022-08-04T17:57:20.970Z,1.00
2022-08-04T17:59:58.793Z,1.20
2022-08-04T18:02:32.708Z,1.00
2022-08-04T18:05:09.958Z,1.00
2022-08-04T18:08:37.683Z,1.00
2022-08-04T18:10:52.353Z,1.05
2022-08-04T18:13:27.983Z,1.08
2022-08-04T18:16:14.537Z,1.08
2022-08-04T18:19:11.340Z,1.00
2022-08-04T18:21:46.463Z,0.90
2022-08-04T18:24:35.113Z,1.13
2022-08-04T18:27:06.463Z,0.80
2022-08-04T18:29:38.994Z,1.10
2022-08-04T18:32:09.121Z,0.98
2022-08-04T18:38:05.397Z,0.98
2022-08-04T18:40:28.113Z,1.02
2022-08-04T18:43:00.465Z,1.00
2022-08-04T18:45:34.692Z,0.90
2022-08-04T18:48:03.917Z,0.82
2022-08-04T18:50:58.601Z,0.82
2022-08-04T18:53:17.885Z,1.10
2022-08-04T18:55:55.476Z,0.93
2022-08-04T18:58:26.694Z,0.90
2022-08-04T19:00:55.633Z,0.90
2022-08-04T19:03:23.250Z,0.80
2022-08-04T19:08:42.438Z,1.05
2022-08-04T19:11:35.218Z,1.17
2022-08-04T19:13:59.012Z,0.68
2022-08-04T19:16:30.561Z,0.90
2022-08-04T19:19:02.889Z,0.80
2022-08-04T19:22:00.074Z,0.90
2022-08-04T19:24:31.615Z,0.80
2022-08-04T19:27:07.554Z,0.80
2022-08-04T19:29:37.643Z,0.90
2022-08-04T19:32:14.853Z,1.00
2022-08-04T19:34:46.061Z,1.00
2022-08-04T19:37:20.148Z,0.90
2022-08-04T19:40:02.239Z,1.00
2022-08-04T19:42:31.762Z,1.10
2022-08-04T19:44:58.512Z,1.00
2022-08-04T19:48:21.361Z,1.00
2022-08-04T19:50:14.061Z,0.90
2022-08-04T19:52:51.342Z,1.00
2022-08-04T19:55:22.320Z,1.20
2022-08-04T19:57:52.445Z,0.95
2022-08-04T20:00:33.182Z,1.10
2022-08-04T20:03:11.231Z,1.00
2022-08-04T20:08:29.743Z,1.10
2022-08-04T20:13:44.023Z,0.95
2022-08-04T20:16:29.741Z,1.08
2022-08-04T20:19:02.776Z,1.13
2022-08-04T20:21:55.544Z,1.30
2022-08-04T20:24:40.118Z,1.10
2022-08-04T20:29:55.627Z,1.10
2022-08-04T20:32:24.452Z,1.08
2022-08-04T20:34:53.309Z,1.30
2022-08-04T20:37:25.263Z,1.30
2022-08-04T20:39:57.344Z,1.20
2022-08-04T20:42:33.716Z,1.30
2022-08-04T20:45:01.712Z,1.20
2022-08-04T20:47:35.132Z,1.10
2022-08-04T20:50:04.863Z,1.35
2022-08-04T20:52:33.193Z,1.00
2022-08-04T20:55:04.584Z,1.30
2022-08-04T20:57:50.030Z,1.30
2022-08-04T21:00:29.773Z,1.20
2022-08-04T21:03:00.607Z,1.35
2022-08-04T21:05:28.253Z,1.40
2022-08-04T21:07:58.142Z,1.30
2022-08-04T21:10:26.348Z,1.23
2022-08-04T21:12:54.118Z,1.23
2022-08-04T21:15:25.492Z,1.60
2022-08-04T21:17:56.678Z,1.23
2022-08-04T21:20:27.736Z,1.10
2022-08-04T21:22:55.180Z,1.30
2022-08-04T21:25:26.531Z,1.30
2022-08-04T21:27:53.590Z,1.20
2022-08-04T21:30:24.016Z,1.30
2022-08-04T21:32:51.062Z,1.20
2022-08-04T21:35:18.949Z,1.00
2022-08-04T21:37:56.533Z,1.30
2022-08-04T21:40:30.850Z,1.13
2022-08-04T21:43:03.199Z,1.10
2022-08-04T21:45:36.175Z,1.20
2022-08-04T21:48:03.442Z,1.02
2022-08-04T21:50:31.199Z,1.20
2022-08-04T21:52:59.101Z,1.10
2022-08-04T21:56:06.816Z,1.38
2022-08-04T21:58:13.571Z,1.10
2022-08-04T22:00:40.956Z,1.30
2022-08-04T22:03:28.672Z,1.20
2022-08-04T22:05:55.847Z,1.23
2022-08-04T22:08:23.653Z,1.33
2022-08-04T22:10:56.341Z,1.27
2022-08-04T22:13:24.784Z,1.27
2022-08-04T22:16:11.517Z,1.20
2022-08-04T22:18:38.262Z,1.30
2022-08-04T22:21:11.905Z,1.08
2022-08-04T22:23:45.738Z,1.30
2022-08-04T22:26:20.147Z,1.20
2022-08-04T22:28:54.982Z,1.20
2022-08-04T22:31:23.971Z,1.30
2022-08-04T22:33:55.235Z,1.05
2022-08-04T22:36:24.841Z,1.30
2022-08-04T22:39:01.510Z,1.30
2022-08-04T22:41:48.247Z,1.20
2022-08-04T22:44:20.763Z,1.17
2022-08-04T22:46:48.160Z,1.10
2022-08-04T22:49:14.947Z,1.30
2022-08-04T22:51:48.403Z,1.30
2022-08-04T22:54:17.657Z,1.38
2022-08-04T22:56:45.595Z,1.30
2022-08-04T22:59:12.552Z,1.20
2022-08-04T23:01:59.778Z,1.25
2022-08-04T23:04:30.117Z,1.10
2022-08-04T23:06:57.084Z,1.25
2022-08-04T23:09:49.230Z,1.30
2022-08-04T23:12:24.309Z,1.10
2022-08-04T23:14:53.387Z,1.20
2022-08-04T23:17:22.127Z,1.23
2022-08-04T23:19:57.385Z,1.20
2022-08-04T23:22:37.121Z,1.20
2022-08-04T23:25:16.546Z,1.10
2022-08-04T23:27:51.038Z,1.35
2022-08-04T23:30:24.808Z,1.10
2022-08-04T23:32:57.547Z,1.40
2022-08-04T23:35:24.522Z,1.40
2022-08-04T23:37:56.823Z,1.52
2022-08-04T23:40:32.871Z,1.42
2022-08-04T23:43:00.895Z,1.38
2022-08-04T23:46:03.999Z,1.40
2022-08-04T23:48:19.401Z,1.27
2022-08-04T23:50:48.085Z,1.38
2022-08-04T23:53:18.756Z,1.10
2022-08-04T23:55:49.504Z,1.50
2022-08-04T23:58:19.149Z,1.30
